createdAt,value
2023-04-09T00:00:29.941Z,98686.00
2023-04-09T00:02:57.665Z,98682.00
2023-04-09T00:05:26.809Z,98687.00
2023-04-09T00:07:54.571Z,98683.00
2023-04-09T00:10:22.249Z,98690.00
2023-04-09T00:12:49.902Z,98682.00
2023-04-09T00:15:27.769Z,98683.00
2023-04-09T00:17:58.676Z,98679.00
2023-04-09T00:20:27.817Z,98686.00
2023-04-09T00:22:56.456Z,98683.00
2023-04-09T00:25:24.264Z,98691.00
2023-04-09T00:27:51.887Z,98678.00
2023-04-09T00:30:19.517Z,98672.00
2023-04-09T00:32:47.246Z,98682.00
2023-04-09T00:35:14.926Z,98676.00
2023-04-09T00:37:43.981Z,98680.00
2023-04-09T00:40:12.112Z,98672.00
2023-04-09T00:42:39.813Z,98683.00
2023-04-09T00:45:08.833Z,98676.00
2023-04-09T00:47:37.072Z,98673.00
2023-04-09T00:50:05.436Z,98678.00
2023-04-09T00:52:34.402Z,98672.00
2023-04-09T00:55:05.513Z,98679.00
2023-04-09T00:57:33.342Z,98680.00
2023-04-09T01:00:01.127Z,98677.00
2023-04-09T01:02:31.015Z,98683.00
2023-04-09T01:04:59.200Z,98669.00
2023-04-09T01:07:37.155Z,98678.00
2023-04-09T01:10:18.127Z,98676.00
2023-04-09T01:12:55.645Z,98671.00
2023-04-09T01:15:27.724Z,98673.00
2023-04-09T01:18:01.506Z,98668.00
2023-04-09T01:20:36.021Z,98669.00
2023-04-09T01:23:12.574Z,98668.00
2023-04-09T01:25:51.770Z,98658.00
2023-04-09T01:28:23.883Z,98658.00
2023-04-09T01:30:54.836Z,98663.00
2023-04-09T01:33:23.652Z,98670.00
2023-04-09T01:35:52.857Z,98672.00
2023-04-09T01:38:22.456Z,98672.00
2023-04-09T01:40:51.476Z,98674.00
2023-04-09T01:43:19.396Z,98667.00
2023-04-09T01:45:49.617Z,98675.00
2023-04-09T01:48:17.690Z,98674.00
2023-04-09T01:50:46.041Z,98672.00
2023-04-09T01:53:14.621Z,98676.00
2023-04-09T01:55:42.326Z,98677.00
2023-04-09T01:58:09.950Z,98678.00
2023-04-09T02:00:41.090Z,98678.00
2023-04-09T02:03:16.864Z,98666.00
2023-04-09T02:05:47.509Z,98670.00
2023-04-09T02:08:21.897Z,98679.00
2023-04-09T02:10:55.684Z,98674.00
2023-04-09T02:13:24.648Z,98680.00
2023-04-09T02:15:53.238Z,98681.00
2023-04-09T02:18:27.453Z,98679.00
2023-04-09T02:20:55.704Z,98681.00
2023-04-09T02:23:23.834Z,98677.00
2023-04-09T02:25:52.146Z,98684.00
2023-04-09T02:28:19.861Z,98687.00
2023-04-09T02:30:47.495Z,98685.00
2023-04-09T02:33:15.304Z,98686.00
2023-04-09T02:35:44.344Z,98686.00
2023-04-09T02:38:13.941Z,98688.00
2023-04-09T02:40:42.136Z,98693.00
2023-04-09T02:43:10.610Z,98688.00
2023-04-09T02:45:38.379Z,98677.00
2023-04-09T02:48:06.376Z,98681.00
2023-04-09T02:50:34.061Z,98676.00
2023-04-09T02:53:03.318Z,98675.00
2023-04-09T02:55:31.142Z,98672.00
2023-04-09T02:57:58.809Z,98669.00
2023-04-09T03:00:26.447Z,98679.00
2023-04-09T03:02:54.253Z,98667.00
2023-04-09T03:05:22.047Z,98675.00
2023-04-09T03:07:49.732Z,98667.00
2023-04-09T03:10:18.997Z,98660.00
2023-04-09T03:12:47.917Z,98660.00
2023-04-09T03:15:15.707Z,98668.00
2023-04-09T03:17:43.346Z,98662.00
2023-04-09T03:20:11.538Z,98656.00
2023-04-09T03:22:39.589Z,98658.00
2023-04-09T03:25:07.855Z,98651.00
2023-04-09T03:27:36.974Z,98659.00
2023-04-09T03:30:05.174Z,98661.00
2023-04-09T03:32:32.874Z,98669.00
2023-04-09T03:35:00.651Z,98675.00
2023-04-09T03:37:28.276Z,98678.00
2023-04-09T03:39:56.022Z,98673.00
2023-04-09T03:42:23.649Z,98674.00
2023-04-09T03:44:54.688Z,98680.00
2023-04-09T03:47:22.340Z,98679.00
2023-04-09T03:49:50.043Z,98682.00
2023-04-09T03:52:17.725Z,98683.00
2023-04-09T03:54:45.980Z,98686.00
2023-04-09T03:57:13.617Z,98685.00
2023-04-09T03:59:41.257Z,98693.00
2023-04-09T04:02:10.309Z,98689.00
2023-04-09T04:04:38.045Z,98688.00
2023-04-09T04:07:05.826Z,98688.00
2023-04-09T04:09:33.451Z,98684.00
2023-04-09T04:12:02.372Z,98695.00
2023-04-09T04:14:29.998Z,98693.00
2023-04-09T04:16:57.635Z,98679.00
2023-04-09T04:19:26.596Z,98690.00
2023-04-09T04:21:54.293Z,98689.00
2023-04-09T04:24:21.898Z,98690.00
2023-04-09T04:26:49.557Z,98695.00
2023-04-09T04:29:17.225Z,98701.00
2023-04-09T04:31:44.841Z,98704.00
2023-04-09T04:34:12.454Z,98709.00
2023-04-09T04:36:41.440Z,98709.00
2023-04-09T04:39:09.073Z,98719.00
2023-04-09T04:41:36.680Z,98713.00
2023-04-09T04:44:04.386Z,98712.00
2023-04-09T04:46:32.009Z,98716.00
2023-04-09T04:48:59.659Z,98718.00
2023-04-09T04:51:27.953Z,98718.00
2023-04-09T04:53:56.976Z,98722.00
2023-04-09T04:56:24.578Z,98718.00
2023-04-09T04:58:52.381Z,98724.00
2023-04-09T05:01:20.277Z,98718.00
2023-04-09T05:03:47.968Z,98724.00
2023-04-09T05:06:15.674Z,98726.00
2023-04-09T05:08:43.296Z,98730.00
2023-04-09T05:11:15.141Z,98727.00
2023-04-09T05:13:42.738Z,98729.00
2023-04-09T05:16:17.812Z,98721.00
2023-04-09T05:18:45.534Z,98723.00
2023-04-09T05:21:16.213Z,98733.00
2023-04-09T05:23:43.845Z,98730.00
2023-04-09T05:26:11.535Z,98720.00
2023-04-09T05:28:40.608Z,98728.00
2023-04-09T05:31:14.511Z,98729.00
2023-04-09T05:33:42.293Z,98729.00
2023-04-09T05:36:09.938Z,98720.00
2023-04-09T05:38:37.552Z,98729.00
2023-04-09T05:41:05.244Z,98717.00
2023-04-09T05:43:33.340Z,98719.00
2023-04-09T05:46:02.310Z,98735.00
2023-04-09T05:48:30.032Z,98739.00
2023-04-09T05:50:59.690Z,98734.00
2023-04-09T05:53:28.554Z,98736.00
2023-04-09T05:55:56.435Z,98736.00
2023-04-09T05:58:24.241Z,98738.00
2023-04-09T06:00:52.521Z,98731.00
2023-04-09T06:03:21.805Z,98735.00
2023-04-09T06:05:49.566Z,98735.00
2023-04-09T06:08:17.242Z,98735.00
2023-04-09T06:10:44.993Z,98737.00
2023-04-09T06:13:12.644Z,98737.00
2023-04-09T06:15:40.572Z,98743.00
2023-04-09T06:18:08.301Z,98741.00
2023-04-09T06:20:37.296Z,98743.00
2023-04-09T06:23:04.947Z,98736.00
2023-04-09T06:25:32.595Z,98746.00
2023-04-09T06:28:00.261Z,98736.00
2023-04-09T06:30:28.029Z,98738.00
2023-04-09T06:32:55.775Z,98739.00
2023-04-09T06:35:23.958Z,98745.00
2023-04-09T06:37:52.908Z,98745.00
2023-04-09T06:40:23.344Z,98748.00
2023-04-09T06:42:51.425Z,98752.00
2023-04-09T06:45:19.263Z,98761.00
2023-04-09T06:47:47.032Z,98758.00
2023-04-09T06:50:14.833Z,98760.00
2023-04-09T06:52:42.786Z,98761.00
2023-04-09T06:55:11.892Z,98763.00
2023-04-09T06:57:39.499Z,98760.00
2023-04-09T07:00:08.378Z,98770.00
2023-04-09T07:02:36.396Z,98762.00
2023-04-09T07:05:05.590Z,98764.00
2023-04-09T07:07:33.206Z,98776.00
2023-04-09T07:10:01.605Z,98760.00
2023-04-09T07:12:31.545Z,98759.00
2023-04-09T07:14:59.804Z,98765.00
2023-04-09T07:17:27.464Z,98768.00
2023-04-09T07:19:55.367Z,98764.00
2023-04-09T07:22:23.495Z,98772.00
2023-04-09T07:24:54.841Z,98767.00
2023-04-09T07:27:23.299Z,98766.00
2023-04-09T07:29:52.317Z,98770.00
2023-04-09T07:32:20.028Z,98776.00
2023-04-09T07:34:47.893Z,98768.00
2023-04-09T07:37:15.662Z,98779.00
2023-04-09T07:39:43.588Z,98777.00
2023-04-09T07:42:11.430Z,98775.00
2023-04-09T07:44:39.598Z,98769.00
2023-04-09T07:47:09.374Z,98777.00
2023-04-09T07:49:38.485Z,98776.00
2023-04-09T07:52:07.383Z,98774.00
2023-04-09T07:54:35.917Z,98781.00
2023-04-09T07:57:04.348Z,98770.00
2023-04-09T07:59:32.163Z,98776.00
2023-04-09T08:02:00.223Z,98779.00
2023-04-09T08:04:29.449Z,98778.00
2023-04-09T08:06:57.100Z,98787.00
2023-04-09T08:09:24.777Z,98783.00
2023-04-09T08:11:53.291Z,98785.00
2023-04-09T08:14:21.284Z,98784.00
2023-04-09T08:16:50.320Z,98786.00
2023-04-09T08:19:19.107Z,98791.00
2023-04-09T08:21:49.619Z,98782.00
2023-04-09T08:24:18.322Z,98786.00
2023-04-09T08:26:46.159Z,98783.00
2023-04-09T08:29:14.128Z,98776.00
2023-04-09T08:31:42.150Z,98783.00
2023-04-09T08:34:09.844Z,98776.00
2023-04-09T08:36:37.638Z,98782.00
2023-04-09T08:39:07.073Z,98779.00
2023-04-09T08:41:36.386Z,98782.00
2023-04-09T08:44:04.053Z,98783.00
2023-04-09T08:46:31.967Z,98782.00
2023-04-09T08:48:59.625Z,98769.00
2023-04-09T08:51:28.732Z,98780.00
2023-04-09T08:53:58.388Z,98776.00
2023-04-09T08:56:27.716Z,98773.00
2023-04-09T08:58:56.710Z,98767.00
2023-04-09T09:01:31.040Z,98774.00
2023-04-09T09:04:01.253Z,98772.00
2023-04-09T09:06:32.764Z,98776.00
2023-04-09T09:09:01.991Z,98777.00
2023-04-09T09:11:31.392Z,98777.00
2023-04-09T09:14:00.049Z,98777.00
2023-04-09T09:16:28.354Z,98779.00
2023-04-09T09:18:57.202Z,98780.00
2023-04-09T09:21:28.621Z,98787.00
2023-04-09T09:23:56.593Z,98783.00
2023-04-09T09:26:26.363Z,98786.00
2023-04-09T09:28:55.859Z,98782.00
2023-04-09T09:31:24.312Z,98781.00
2023-04-09T09:33:52.349Z,98782.00
2023-04-09T09:36:33.184Z,98779.00
2023-04-09T09:39:03.802Z,98783.00
2023-04-09T09:41:31.697Z,98775.00
2023-04-09T09:44:00.776Z,98781.00
2023-04-09T09:46:29.727Z,98780.00
2023-04-09T09:48:57.549Z,98783.00
2023-04-09T09:51:28.846Z,98785.00
2023-04-09T09:53:58.008Z,98784.00
2023-04-09T09:56:32.625Z,98779.00
2023-04-09T09:59:08.483Z,98784.00
2023-04-09T10:01:36.757Z,98781.00
2023-04-09T10:04:07.548Z,98776.00
2023-04-09T10:06:35.778Z,98779.00
2023-04-09T10:09:06.391Z,98782.00
2023-04-09T10:11:36.306Z,98769.00
2023-04-09T10:14:06.188Z,98763.00
2023-04-09T10:16:37.272Z,98762.00
2023-04-09T10:19:06.897Z,98763.00
2023-04-09T10:21:41.673Z,98759.00
2023-04-09T10:24:11.207Z,98755.00
2023-04-09T10:26:42.159Z,98740.00
2023-04-09T10:29:14.494Z,98748.00
2023-04-09T10:31:55.930Z,98743.00
2023-04-09T10:34:24.830Z,98756.00
2023-04-09T10:36:54.692Z,98755.00
2023-04-09T10:39:22.620Z,98757.00
2023-04-09T10:41:51.277Z,98746.00
2023-04-09T10:44:24.688Z,98749.00
2023-04-09T10:46:54.965Z,98749.00
2023-04-09T10:49:24.115Z,98748.00
2023-04-09T10:51:56.110Z,98753.00
2023-04-09T10:54:47.637Z,98749.00
2023-04-09T10:57:21.210Z,98750.00
2023-04-09T10:59:52.005Z,98758.00
2023-04-09T11:02:47.598Z,98749.00
2023-04-09T11:05:28.861Z,98742.00
2023-04-09T11:08:03.138Z,98742.00
2023-04-09T11:10:30.940Z,98738.00
2023-04-09T11:12:58.667Z,98750.00
2023-04-09T11:15:27.997Z,98745.00
2023-04-09T11:17:57.620Z,98736.00
2023-04-09T11:20:28.187Z,98732.00
2023-04-09T11:22:56.631Z,98731.00
2023-04-09T11:25:26.318Z,98738.00
2023-04-09T11:27:54.674Z,98731.00
2023-04-09T11:30:22.309Z,98725.00
2023-04-09T11:32:53.195Z,98728.00
2023-04-09T11:35:22.335Z,98734.00
2023-04-09T11:37:52.301Z,98724.00
2023-04-09T11:40:21.973Z,98725.00
2023-04-09T11:42:51.696Z,98726.00
2023-04-09T11:45:20.630Z,98723.00
2023-04-09T11:47:48.776Z,98720.00
2023-04-09T11:50:18.339Z,98727.00
2023-04-09T11:52:46.713Z,98718.00
2023-04-09T11:55:24.542Z,98725.00
2023-04-09T11:57:54.320Z,98718.00
2023-04-09T12:00:22.237Z,98725.00
2023-04-09T12:02:51.286Z,98720.00
2023-04-09T12:05:25.199Z,98721.00
2023-04-09T12:07:56.645Z,98729.00
2023-04-09T12:10:28.541Z,98719.00
2023-04-09T12:12:56.819Z,98729.00
2023-04-09T12:15:26.170Z,98715.00
2023-04-09T12:17:56.069Z,98724.00
2023-04-09T12:20:36.667Z,98721.00
2023-04-09T12:23:05.814Z,98720.00
2023-04-09T12:25:35.509Z,98717.00
2023-04-09T12:28:03.974Z,98726.00
2023-04-09T12:30:31.723Z,98719.00
2023-04-09T12:32:59.891Z,98724.00
2023-04-09T12:35:28.301Z,98719.00
2023-04-09T12:37:57.431Z,98713.00
2023-04-09T12:40:25.285Z,98714.00
2023-04-09T12:42:53.084Z,98711.00
2023-04-09T12:45:21.202Z,98712.00
2023-04-09T12:47:49.190Z,98705.00
2023-04-09T12:50:17.206Z,98706.00
2023-04-09T12:52:44.907Z,98702.00
2023-04-09T12:55:14.701Z,98695.00
2023-04-09T12:57:45.009Z,98687.00
2023-04-09T13:00:13.955Z,98685.00
2023-04-09T13:02:41.809Z,98687.00
2023-04-09T13:05:09.772Z,98684.00
2023-04-09T13:07:37.417Z,98684.00
2023-04-09T13:10:05.623Z,98689.00
2023-04-09T13:12:34.704Z,98685.00
2023-04-09T13:15:02.380Z,98686.00
2023-04-09T13:17:30.113Z,98679.00
2023-04-09T13:19:57.765Z,98679.00
2023-04-09T13:22:25.730Z,98676.00
2023-04-09T13:24:53.628Z,98681.00
2023-04-09T13:27:21.249Z,98681.00
2023-04-09T13:29:50.314Z,98674.00
2023-04-09T13:32:19.053Z,98674.00
2023-04-09T13:34:46.678Z,98671.00
2023-04-09T13:37:14.374Z,98664.00
2023-04-09T13:39:42.095Z,98666.00
2023-04-09T13:42:13.704Z,98665.00
2023-04-09T13:44:44.931Z,98656.00
2023-04-09T13:47:14.871Z,98658.00
2023-04-09T13:49:43.133Z,98662.00
2023-04-09T13:52:11.636Z,98664.00
2023-04-09T13:54:39.253Z,98663.00
2023-04-09T13:57:07.018Z,98659.00
2023-04-09T13:59:34.927Z,98661.00
2023-04-09T14:02:02.797Z,98661.00
2023-04-09T14:04:32.436Z,98664.00
2023-04-09T14:07:00.050Z,98654.00
2023-04-09T14:09:27.685Z,98653.00
2023-04-09T14:11:56.132Z,98653.00
2023-04-09T14:14:44.734Z,98654.00
2023-04-09T14:17:12.364Z,98655.00
2023-04-09T14:19:41.316Z,98652.00
2023-04-09T14:22:09.083Z,98647.00
2023-04-09T14:24:40.083Z,98640.00
2023-04-09T14:27:08.715Z,98642.00
2023-04-09T14:29:36.556Z,98639.00
2023-04-09T14:32:04.365Z,98643.00
2023-04-09T14:34:32.655Z,98638.00
2023-04-09T14:37:06.360Z,98634.00
2023-04-09T14:39:36.313Z,98632.00
2023-04-09T14:42:03.951Z,98621.00
2023-04-09T14:44:31.753Z,98626.00
2023-04-09T14:47:00.020Z,98620.00
2023-04-09T14:49:27.732Z,98623.00
2023-04-09T14:51:55.364Z,98620.00
2023-04-09T14:54:24.370Z,98623.00
2023-04-09T14:56:52.075Z,98615.00
2023-04-09T14:59:19.656Z,98616.00
2023-04-09T15:01:47.393Z,98617.00
2023-04-09T15:04:15.694Z,98614.00
2023-04-09T15:06:43.411Z,98615.00
2023-04-09T15:09:11.020Z,98615.00
2023-04-09T15:11:40.013Z,98610.00
2023-04-09T15:14:07.648Z,98614.00
2023-04-09T15:16:37.431Z,98614.00
2023-04-09T15:19:05.305Z,98615.00
2023-04-09T15:21:32.954Z,98609.00
2023-04-09T15:24:00.671Z,98603.00
2023-04-09T15:26:28.350Z,98608.00
2023-04-09T15:29:02.743Z,98610.00
2023-04-09T15:31:30.643Z,98607.00
2023-04-09T15:33:58.278Z,98608.00
2023-04-09T15:36:26.214Z,98609.00
2023-04-09T15:38:54.923Z,98599.00
2023-04-09T15:41:23.972Z,98600.00
2023-04-09T15:43:52.383Z,98601.00
2023-04-09T15:46:21.417Z,98597.00
2023-04-09T15:48:49.024Z,98592.00
2023-04-09T15:51:16.719Z,98601.00
2023-04-09T15:53:44.633Z,98598.00
2023-04-09T15:56:15.133Z,98601.00
2023-04-09T15:58:42.806Z,98594.00
2023-04-09T16:01:11.050Z,98590.00
2023-04-09T16:03:41.410Z,98593.00
2023-04-09T16:06:10.517Z,98597.00
2023-04-09T16:08:38.739Z,98593.00
2023-04-09T16:11:08.145Z,98601.00
2023-04-09T16:13:35.776Z,98599.00
2023-04-09T16:16:03.667Z,98595.00
2023-04-09T16:18:31.475Z,98602.00
2023-04-09T16:21:00.577Z,98604.00
2023-04-09T16:23:30.419Z,98607.00
2023-04-09T16:25:58.497Z,98606.00
2023-04-09T16:28:26.474Z,98607.00
2023-04-09T16:30:54.292Z,98612.00
2023-04-09T16:33:21.893Z,98608.00
2023-04-09T16:35:49.545Z,98612.00
2023-04-09T16:38:18.603Z,98617.00
2023-04-09T16:40:46.391Z,98611.00
2023-04-09T16:43:14.290Z,98619.00
2023-04-09T16:45:41.997Z,98611.00
2023-04-09T16:48:12.224Z,98617.00
2023-04-09T16:50:41.190Z,98617.00
2023-04-09T16:53:08.921Z,98616.00
2023-04-09T16:55:38.044Z,98613.00
2023-04-09T16:58:05.750Z,98616.00
2023-04-09T17:00:33.404Z,98614.00
2023-04-09T17:03:02.239Z,98620.00
2023-04-09T17:05:30.472Z,98617.00
2023-04-09T17:07:58.092Z,98615.00
2023-04-09T17:10:25.770Z,98623.00
2023-04-09T17:12:54.744Z,98627.00
2023-04-09T17:15:22.646Z,98627.00
2023-04-09T17:17:53.015Z,98619.00
2023-04-09T17:20:21.795Z,98631.00
2023-04-09T17:22:49.462Z,98620.00
2023-04-09T17:25:17.290Z,98624.00
2023-04-09T17:27:45.497Z,98627.00
2023-04-09T17:30:14.633Z,98625.00
2023-04-09T17:32:43.768Z,98630.00
2023-04-09T17:35:11.443Z,98634.00
2023-04-09T17:37:39.495Z,98639.00
2023-04-09T17:40:08.356Z,98630.00
2023-04-09T17:42:36.119Z,98629.00
2023-04-09T17:45:04.614Z,98631.00
2023-04-09T17:47:33.709Z,98631.00
2023-04-09T17:50:01.468Z,98630.00
2023-04-09T17:52:29.416Z,98640.00
2023-04-09T17:54:57.478Z,98644.00
2023-04-09T17:57:25.094Z,98650.00
2023-04-09T17:59:52.864Z,98641.00
2023-04-09T18:02:21.553Z,98654.00
2023-04-09T18:04:50.830Z,98652.00
2023-04-09T18:07:18.498Z,98650.00
2023-04-09T18:09:46.235Z,98650.00
2023-04-09T18:12:13.865Z,98652.00
2023-04-09T18:14:41.468Z,98656.00
2023-04-09T18:17:09.428Z,98651.00
2023-04-09T18:19:37.062Z,98656.00
2023-04-09T18:22:06.009Z,98662.00
2023-04-09T18:24:34.406Z,98661.00
2023-04-09T18:27:03.148Z,98663.00
2023-04-09T18:29:31.396Z,98663.00
2023-04-09T18:31:59.460Z,98666.00
2023-04-09T18:34:27.190Z,98668.00
2023-04-09T18:36:55.447Z,98671.00
2023-04-09T18:39:24.422Z,98678.00
2023-04-09T18:41:52.205Z,98675.00
2023-04-09T18:44:19.885Z,98683.00
2023-04-09T18:46:47.656Z,98690.00
2023-04-09T18:49:15.403Z,98682.00
2023-04-09T18:51:43.067Z,98690.00
2023-04-09T18:54:10.866Z,98689.00
2023-04-09T18:56:39.912Z,98696.00
2023-04-09T18:59:07.631Z,98695.00
2023-04-09T19:01:35.531Z,98698.00
2023-04-09T19:04:03.333Z,98688.00
2023-04-09T19:06:33.079Z,98701.00
2023-04-09T19:09:00.708Z,98702.00
2023-04-09T19:11:28.744Z,98706.00
2023-04-09T19:13:57.761Z,98707.00
2023-04-09T19:16:25.428Z,98708.00
2023-04-09T19:18:53.502Z,98708.00
2023-04-09T19:21:21.204Z,98714.00
2023-04-09T19:23:49.180Z,98714.00
2023-04-09T19:26:16.817Z,98710.00
2023-04-09T19:28:44.441Z,98717.00
2023-04-09T19:31:14.495Z,98714.00
2023-04-09T19:33:42.229Z,98720.00
2023-04-09T19:36:10.275Z,98719.00
2023-04-09T19:38:37.910Z,98715.00
2023-04-09T19:41:05.947Z,98716.00
2023-04-09T19:43:33.729Z,98717.00
2023-04-09T19:46:05.799Z,98720.00
2023-04-09T19:48:34.876Z,98714.00
2023-04-09T19:51:03.045Z,98723.00
2023-04-09T19:53:31.025Z,98718.00
2023-04-09T19:55:58.780Z,98717.00
2023-04-09T19:58:26.440Z,98718.00
2023-04-09T20:00:54.941Z,98720.00
2023-04-09T20:03:22.890Z,98716.00
2023-04-09T20:05:52.030Z,98718.00
2023-04-09T20:08:19.727Z,98715.00
2023-04-09T20:10:47.729Z,98715.00
2023-04-09T20:13:15.476Z,98713.00
2023-04-09T20:15:43.888Z,98718.00
2023-04-09T20:18:11.657Z,98722.00
2023-04-09T20:20:39.300Z,98718.00
2023-04-09T20:23:08.256Z,98725.00
2023-04-09T20:25:36.663Z,98727.00
2023-04-09T20:28:04.799Z,98736.00
2023-04-09T20:30:32.898Z,98741.00
2023-04-09T20:33:01.284Z,98734.00
2023-04-09T20:35:29.064Z,98731.00
2023-04-09T20:37:56.677Z,98729.00
2023-04-09T20:40:25.884Z,98733.00
2023-04-09T20:42:53.465Z,98732.00
2023-04-09T20:45:21.108Z,98736.00
2023-04-09T20:47:48.744Z,98727.00
2023-04-09T20:50:16.484Z,98723.00
2023-04-09T20:52:44.711Z,98732.00
2023-04-09T20:55:12.327Z,98732.00
2023-04-09T20:57:41.380Z,98732.00
2023-04-09T21:00:10.214Z,98737.00
2023-04-09T21:02:39.252Z,98738.00
2023-04-09T21:05:19.504Z,98734.00
2023-04-09T21:07:49.290Z,98742.00
2023-04-09T21:10:17.002Z,98736.00
2023-04-09T21:12:45.956Z,98738.00
2023-04-09T21:15:13.687Z,98740.00
2023-04-09T21:17:41.333Z,98744.00
2023-04-09T21:20:09.777Z,98750.00
2023-04-09T21:22:37.364Z,98753.00
2023-04-09T21:25:05.761Z,98748.00
2023-04-09T21:27:33.373Z,98742.00
2023-04-09T21:30:02.336Z,98743.00
2023-04-09T21:32:29.965Z,98744.00
2023-04-09T21:34:57.610Z,98745.00
2023-04-09T21:37:25.264Z,98744.00
2023-04-09T21:39:53.090Z,98741.00
2023-04-09T21:42:21.191Z,98739.00
2023-04-09T21:44:48.790Z,98743.00
2023-04-09T21:47:17.818Z,98731.00
2023-04-09T21:49:46.423Z,98730.00
2023-04-09T21:52:17.167Z,98727.00
2023-04-09T21:54:44.901Z,98732.00
2023-04-09T21:57:12.642Z,98736.00
2023-04-09T21:59:41.183Z,98735.00
2023-04-09T22:02:10.362Z,98739.00
2023-04-09T22:04:42.434Z,98745.00
2023-04-09T22:07:11.213Z,98743.00
2023-04-09T22:09:39.084Z,98740.00
2023-04-09T22:12:06.903Z,98742.00
2023-04-09T22:14:34.542Z,98738.00
2023-04-09T22:17:03.414Z,98741.00
2023-04-09T22:19:32.424Z,98737.00
2023-04-09T22:22:01.380Z,98734.00
2023-04-09T22:24:30.278Z,98735.00
2023-04-09T22:26:58.912Z,98728.00
2023-04-09T22:29:27.727Z,98733.00
2023-04-09T22:31:55.732Z,98734.00
2023-04-09T22:34:23.542Z,98733.00
2023-04-09T22:36:51.545Z,98742.00
2023-04-09T22:39:21.442Z,98744.00
2023-04-09T22:41:49.072Z,98742.00
2023-04-09T22:44:16.726Z,98737.00
2023-04-09T22:46:44.377Z,98740.00
2023-04-09T22:49:12.364Z,98744.00
2023-04-09T22:51:41.745Z,98743.00
2023-04-09T22:54:09.681Z,98740.00
2023-04-09T22:56:38.634Z,98736.00
2023-04-09T22:59:06.299Z,98744.00
2023-04-09T23:01:34.156Z,98748.00
2023-04-09T23:04:01.872Z,98752.00
2023-04-09T23:06:30.926Z,98747.00
2023-04-09T23:08:59.857Z,98743.00
2023-04-09T23:11:28.176Z,98749.00
2023-04-09T23:14:00.442Z,98744.00
2023-04-09T23:16:28.080Z,98742.00
2023-04-09T23:18:55.933Z,98748.00
2023-04-09T23:21:23.743Z,98754.00
2023-04-09T23:23:51.598Z,98749.00
2023-04-09T23:26:19.373Z,98751.00
2023-04-09T23:28:47.013Z,98750.00
2023-04-09T23:31:16.110Z,98754.00
2023-04-09T23:33:43.777Z,98748.00
2023-04-09T23:36:11.450Z,98749.00
2023-04-09T23:38:40.423Z,98756.00
2023-04-09T23:41:08.175Z,98759.00
2023-04-09T23:43:35.977Z,98748.00
2023-04-09T23:46:03.638Z,98757.00
2023-04-09T23:48:32.577Z,98743.00
2023-04-09T23:51:00.223Z,98736.00
2023-04-09T23:53:27.824Z,98734.00
2023-04-09T23:55:55.454Z,98733.00
2023-04-09T23:58:23.147Z,98727.00
